Time;durP1;ratioP1;P1;durP2;ratioP2;P2;SDS_P1;SDS_P2;PMS_P1;PMS_P2;Temp;Humidity;BMP_temperature;BMP_pressure;BME280_temperature;BME280_humidity;BME280_pressure;Samples;Min_cycle;Max_cycle;Signal;HPM_P1;HPM_P2
2021/08/04 00:00:23;;;;;;;4.87;3.13;;;14.90;99.90;;;;;;4176370;28;20301;-79
2021/08/04 00:02:24;;;;;;;5.27;3.23;;;14.90;99.90;;;;;;4182245;28;20214;-79
2021/08/04 00:04:27;;;;;;;4.83;3.10;;;14.90;99.90;;;;;;4180122;28;20687;-78
2021/08/04 00:06:29;;;;;;;5.13;2.83;;;14.90;99.90;;;;;;4180372;28;20206;-80
2021/08/04 00:08:31;;;;;;;4.90;3.00;;;14.90;99.90;;;;;;4177203;28;20212;-79
2021/08/04 00:10:33;;;;;;;4.13;2.87;;;14.90;99.90;;;;;;4180394;28;20230;-79
2021/08/04 00:12:35;;;;;;;9.73;3.27;;;14.90;99.90;;;;;;4179011;28;20210;-79
2021/08/04 00:14:37;;;;;;;5.37;2.97;;;15.00;99.90;;;;;;4180037;28;20210;-79
2021/08/04 00:16:38;;;;;;;4.47;3.00;;;14.90;99.90;;;;;;4179857;28;20762;-79
2021/08/04 00:18:40;;;;;;;7.00;2.73;;;14.90;99.90;;;;;;4176779;28;20214;-79
2021/08/04 00:20:43;;;;;;;4.43;2.90;;;14.90;99.90;;;;;;4180140;28;20227;-79
2021/08/04 00:22:45;;;;;;;4.23;3.03;;;14.90;99.90;;;;;;4180171;28;20210;-79
2021/08/04 00:24:47;;;;;;;5.67;2.83;;;15.00;99.90;;;;;;4179736;28;20262;-79
2021/08/04 00:26:48;;;;;;;5.40;3.00;;;15.00;99.90;;;;;;4171154;28;20223;-79
2021/08/04 00:28:50;;;;;;;4.13;2.63;;;15.00;99.90;;;;;;4178750;28;20216;-80
2021/08/04 00:30:52;;;;;;;7.27;3.10;;;15.00;99.90;;;;;;4178251;28;20257;-79
2021/08/04 00:32:54;;;;;;;5.07;3.03;;;15.00;99.90;;;;;;4180470;28;20211;-80
2021/08/04 00:34:56;;;;;;;3.57;2.50;;;15.00;99.90;;;;;;4181015;28;20305;-80
2021/08/04 00:36:59;;;;;;;4.07;3.00;;;15.00;99.90;;;;;;4181797;28;20227;-79
2021/08/04 00:39:01;;;;;;;6.07;3.07;;;15.10;99.90;;;;;;4188006;28;20260;-80
2021/08/04 00:41:03;;;;;;;4.77;3.10;;;15.00;99.90;;;;;;4188380;28;20244;-80
2021/08/04 00:43:06;;;;;;;4.87;2.97;;;15.00;99.90;;;;;;4186500;28;20233;-80
2021/08/04 00:45:08;;;;;;;5.10;3.13;;;15.00;99.90;;;;;;4181957;28;20568;-79
2021/08/04 00:47:10;;;;;;;4.77;2.90;;;15.00;99.90;;;;;;4181678;28;20282;-80
2021/08/04 00:49:13;;;;;;;4.87;3.00;;;15.00;99.90;;;;;;4180792;28;20215;-79
2021/08/04 00:51:15;;;;;;;4.07;2.73;;;15.00;99.90;;;;;;4181795;28;20276;-79
2021/08/04 00:53:23;;;;;;;7.53;3.30;;;15.00;99.90;;;;;;4178331;28;20206;-79
2021/08/04 00:55:26;;;;;;;5.70;3.10;;;15.10;99.90;;;;;;4166293;28;20223;-79
2021/08/04 00:57:28;;;;;;;4.40;3.00;;;15.00;99.90;;;;;;4179203;28;20227;-78
2021/08/04 00:59:29;;;;;;;4.97;2.90;;;15.10;99.90;;;;;;4179449;28;20253;-79
2021/08/04 01:01:39;;;;;;;4.40;2.93;;;15.00;99.90;;;;;;4179271;28;20285;-79
2021/08/04 01:03:44;;;;;;;3.97;2.87;;;15.10;99.90;;;;;;4175968;28;20210;-79
2021/08/04 01:05:53;;;;;;;4.43;2.87;;;15.00;99.90;;;;;;4183074;28;20206;-79
2021/08/04 01:08:02;;;;;;;4.53;3.03;;;15.00;99.90;;;;;;4182398;28;20214;-79
2021/08/04 01:10:11;;;;;;;4.87;2.87;;;15.10;99.90;;;;;;4182328;28;20653;-79
2021/08/04 01:12:17;;;;;;;5.30;2.70;;;15.10;99.90;;;;;;4179759;28;20260;-79
2021/08/04 01:14:23;;;;;;;5.93;2.70;;;15.10;99.90;;;;;;4183310;28;20208;-78
2021/08/04 01:16:27;;;;;;;4.40;2.70;;;15.10;99.90;;;;;;4179769;28;20588;-78
2021/08/04 01:18:36;;;;;;;4.87;3.00;;;15.10;99.90;;;;;;4188589;28;20233;-79
2021/08/04 01:20:38;;;;;;;4.27;3.17;;;15.10;99.90;;;;;;4183968;28;20256;-79
2021/08/04 01:22:51;;;;;;;4.10;2.70;;;15.10;99.90;;;;;;4185689;28;20211;-79
2021/08/04 01:24:58;;;;;;;4.63;2.80;;;15.10;99.90;;;;;;4182664;28;20202;-80
2021/08/04 01:27:02;;;;;;;6.57;2.80;;;15.10;99.90;;;;;;4182146;28;20199;-79
2021/08/04 01:29:08;;;;;;;8.40;3.40;;;15.10;99.90;;;;;;4181808;28;20710;-79
2021/08/04 01:31:12;;;;;;;6.50;3.07;;;15.10;99.90;;;;;;4187205;28;20321;-80
2021/08/04 01:33:16;;;;;;;5.17;3.10;;;15.10;99.90;;;;;;4188329;28;20979;-80
2021/08/04 01:35:18;;;;;;;6.40;3.10;;;15.10;99.90;;;;;;4189388;28;20223;-79
2021/08/04 01:37:23;;;;;;;6.00;3.17;;;15.00;99.90;;;;;;4185661;28;20222;-79
2021/08/04 01:39:26;;;;;;;5.13;2.87;;;15.10;99.90;;;;;;4172168;28;20297;-79
2021/08/04 01:41:28;;;;;;;4.93;3.17;;;15.00;99.90;;;;;;4182979;28;20231;-78
2021/08/04 01:43:32;;;;;;;4.53;3.17;;;15.00;99.90;;;;;;4182349;28;20204;-79
2021/08/04 01:45:34;;;;;;;7.23;3.00;;;15.00;99.90;;;;;;4181750;28;20247;-79
2021/08/04 01:47:36;;;;;;;4.57;3.03;;;15.00;99.90;;;;;;4181405;28;20654;-79
2021/08/04 01:49:41;;;;;;;5.03;3.13;;;15.10;99.90;;;;;;4190425;28;20260;-79
2021/08/04 01:51:44;;;;;;;6.00;3.10;;;15.00;99.90;;;;;;4183872;28;20238;-79
2021/08/04 01:53:47;;;;;;;7.70;3.00;;;15.00;99.90;;;;;;4182647;28;20210;-79
2021/08/04 01:55:49;;;;;;;5.13;2.97;;;15.10;99.90;;;;;;4181233;28;20306;-78
2021/08/04 01:57:51;;;;;;;5.57;3.27;;;15.00;99.90;;;;;;4175284;28;20214;-79
2021/08/04 01:59:54;;;;;;;4.17;3.20;;;15.00;99.90;;;;;;4182252;28;20204;-79
2021/08/04 02:02:14;;;;;;;4.43;2.93;;;15.10;99.90;;;;;;4180867;28;20213;-78
2021/08/04 02:04:16;;;;;;;4.30;3.00;;;15.10;99.90;;;;;;4182486;28;20196;-79
2021/08/04 02:06:24;;;;;;;5.37;3.50;;;15.10;99.90;;;;;;4175252;28;20209;-79
2021/08/04 02:08:32;;;;;;;5.13;3.20;;;15.00;99.90;;;;;;4182050;28;20565;-78
2021/08/04 02:10:42;;;;;;;4.80;3.27;;;15.10;99.90;;;;;;4181260;28;20231;-79
2021/08/04 02:12:56;;;;;;;4.07;3.20;;;15.10;99.90;;;;;;4180708;28;20228;-78
2021/08/04 02:15:04;;;;;;;7.10;2.90;;;15.00;99.90;;;;;;4174054;28;20294;-78
2021/08/04 02:17:10;;;;;;;5.43;3.30;;;15.00;99.90;;;;;;4180182;28;20226;-78
2021/08/04 02:19:18;;;;;;;4.17;2.93;;;15.10;99.90;;;;;;4182209;28;20669;-78
2021/08/04 02:21:21;;;;;;;10.63;4.03;;;15.00;99.90;;;;;;4181718;28;20230;-79
2021/08/04 02:23:28;;;;;;;3.53;2.73;;;15.10;99.90;;;;;;4172543;28;20210;-80
2021/08/04 02:25:32;;;;;;;6.30;3.13;;;15.00;99.90;;;;;;4182028;28;20225;-79
2021/08/04 02:27:37;;;;;;;5.07;3.23;;;15.00;99.90;;;;;;4180571;28;20207;-78
2021/08/04 02:29:42;;;;;;;6.30;3.47;;;15.00;99.90;;;;;;4179965;28;20207;-78
2021/08/04 02:31:46;;;;;;;6.30;3.77;;;15.00;99.90;;;;;;4181432;28;20234;-79
2021/08/04 02:33:48;;;;;;;9.57;3.03;;;15.00;99.90;;;;;;4179197;28;20264;-78
2021/08/04 02:35:49;;;;;;;5.13;3.07;;;15.00;99.90;;;;;;4181621;28;20589;-78
2021/08/04 02:37:51;;;;;;;6.70;3.57;;;15.00;99.90;;;;;;4181432;28;20562;-79
2021/08/04 02:39:53;;;;;;;6.87;3.47;;;15.00;99.90;;;;;;4181190;28;20245;-78
2021/08/04 02:41:55;;;;;;;4.10;3.20;;;15.00;99.90;;;;;;4174887;28;20219;-79
2021/08/04 02:43:57;;;;;;;5.10;3.73;;;15.10;99.90;;;;;;4181532;28;20623;-77
2021/08/04 02:45:59;;;;;;;5.63;3.40;;;15.00;99.90;;;;;;4181452;28;20255;-77
2021/08/04 02:48:03;;;;;;;5.70;3.50;;;15.00;99.90;;;;;;4180649;28;20243;-77
2021/08/04 02:50:07;;;;;;;5.87;3.80;;;15.00;99.90;;;;;;4181379;28;20207;-77
2021/08/04 02:52:10;;;;;;;5.10;3.40;;;15.00;99.90;;;;;;4205417;23;20236;-78
2021/08/04 02:54:13;;;;;;;8.73;3.70;;;15.00;99.90;;;;;;4180760;28;20280;-78
2021/08/04 02:56:14;;;;;;;7.97;3.30;;;15.00;99.90;;;;;;4181761;28;20616;-77
2021/08/04 02:58:16;;;;;;;7.37;3.50;;;15.00;99.90;;;;;;4180954;28;20215;-78
2021/08/04 03:00:18;;;;;;;6.43;3.70;;;15.00;99.90;;;;;;4180128;28;20207;-77
2021/08/04 03:02:20;;;;;;;7.80;3.90;;;15.00;99.90;;;;;;4180422;28;20587;-78
2021/08/04 03:04:23;;;;;;;5.80;3.30;;;15.00;99.90;;;;;;4181218;28;20266;-78
2021/08/04 03:06:24;;;;;;;6.10;3.73;;;15.00;99.90;;;;;;4178612;28;20219;-78
2021/08/04 03:08:26;;;;;;;7.37;3.50;;;15.00;99.90;;;;;;4180161;28;20233;-78
2021/08/04 03:10:28;;;;;;;7.57;4.20;;;15.00;99.90;;;;;;4164781;28;20220;-78
2021/08/04 03:12:29;;;;;;;6.30;3.60;;;15.00;99.90;;;;;;4171845;28;20204;-78
2021/08/04 03:14:31;;;;;;;6.53;3.57;;;14.90;99.90;;;;;;4178545;28;20225;-78
2021/08/04 03:16:33;;;;;;;6.40;3.70;;;14.90;99.90;;;;;;4181143;28;20207;-78
2021/08/04 03:18:35;;;;;;;7.27;3.67;;;14.90;99.90;;;;;;4175471;28;20588;-78
2021/08/04 03:20:38;;;;;;;8.03;4.07;;;15.00;99.90;;;;;;4164913;28;20215;-78
2021/08/04 03:22:44;;;;;;;7.00;3.40;;;14.90;99.90;;;;;;4173284;28;20265;-78
2021/08/04 03:24:46;;;;;;;5.63;3.47;;;14.90;99.90;;;;;;4181219;28;20216;-78
2021/08/04 03:26:48;;;;;;;5.97;3.90;;;14.90;99.90;;;;;;4179676;28;20204;-78
2021/08/04 03:28:49;;;;;;;5.97;3.60;;;14.90;99.90;;;;;;4177510;28;20624;-78
2021/08/04 03:30:51;;;;;;;5.97;3.80;;;14.90;99.90;;;;;;4180993;28;20732;-78
2021/08/04 03:32:53;;;;;;;6.33;4.17;;;14.90;99.90;;;;;;4168980;28;20210;-78
2021/08/04 03:34:55;;;;;;;5.73;3.97;;;14.90;99.90;;;;;;4179241;28;20505;-78
2021/08/04 03:36:57;;;;;;;7.97;3.47;;;14.90;99.90;;;;;;4168541;28;20221;-78
2021/08/04 03:38:59;;;;;;;6.83;3.90;;;14.90;99.90;;;;;;4179814;28;20207;-78
2021/08/04 03:41:01;;;;;;;5.10;3.37;;;14.90;99.90;;;;;;4181052;28;20640;-78
2021/08/04 03:43:03;;;;;;;4.47;3.40;;;14.90;99.90;;;;;;4180864;28;20313;-78
2021/08/04 03:45:06;;;;;;;8.17;3.67;;;14.90;99.90;;;;;;4186078;28;20281;-78
2021/08/04 03:47:07;;;;;;;7.37;3.53;;;14.90;99.90;;;;;;4172191;28;20231;-78
2021/08/04 03:49:09;;;;;;;5.97;3.73;;;14.90;99.90;;;;;;4174458;28;20752;-78
2021/08/04 03:51:11;;;;;;;5.03;3.57;;;14.90;99.90;;;;;;4183436;28;20234;-78
2021/08/04 03:53:14;;;;;;;5.40;3.43;;;14.90;99.90;;;;;;4168063;28;20241;-79
2021/08/04 03:55:15;;;;;;;5.23;3.10;;;14.90;99.90;;;;;;4175211;28;20209;-79
2021/08/04 03:57:17;;;;;;;5.80;3.33;;;14.90;99.90;;;;;;4174340;28;20327;-79
2021/08/04 03:59:19;;;;;;;7.47;3.83;;;14.90;99.90;;;;;;4163175;28;20215;-79
2021/08/04 04:01:21;;;;;;;5.07;3.40;;;14.90;99.90;;;;;;4165244;28;20227;-79
2021/08/04 04:03:22;;;;;;;7.40;3.63;;;14.90;99.90;;;;;;4164027;28;20215;-79
2021/08/04 04:05:24;;;;;;;6.80;3.73;;;14.90;99.90;;;;;;4178450;28;20210;-79
2021/08/04 04:07:26;;;;;;;5.23;3.60;;;14.90;99.90;;;;;;4178716;28;20216;-79
2021/08/04 04:09:30;;;;;;;7.00;4.00;;;14.90;99.90;;;;;;4178617;28;20670;-79
2021/08/04 04:11:31;;;;;;;6.43;3.63;;;14.90;99.90;;;;;;4177619;28;20322;-79
2021/08/04 04:13:33;;;;;;;7.00;3.97;;;14.90;99.90;;;;;;4176947;28;20210;-79
2021/08/04 04:15:35;;;;;;;7.53;4.00;;;14.90;99.90;;;;;;4179949;28;20219;-79
2021/08/04 04:17:37;;;;;;;8.87;3.87;;;14.90;99.90;;;;;;4171642;28;20224;-79
2021/08/04 04:19:38;;;;;;;6.57;3.90;;;14.90;99.90;;;;;;4176936;28;20731;-79
2021/08/04 04:21:40;;;;;;;6.43;3.83;;;14.90;99.90;;;;;;4168655;28;20246;-79
2021/08/04 04:23:42;;;;;;;5.67;3.63;;;14.90;99.90;;;;;;4163759;28;20212;-79
2021/08/04 04:25:45;;;;;;;7.50;3.90;;;14.90;99.90;;;;;;4170468;28;20229;-79
2021/08/04 04:27:46;;;;;;;7.40;3.77;;;14.90;99.90;;;;;;4179196;28;20632;-79
2021/08/04 04:29:48;;;;;;;5.27;3.27;;;14.80;99.90;;;;;;4182055;28;20704;-79
2021/08/04 04:31:50;;;;;;;7.80;4.33;;;14.80;99.90;;;;;;4179869;28;20229;-79
2021/08/04 04:33:52;;;;;;;7.83;3.50;;;14.80;99.90;;;;;;4180542;28;20219;-79
2021/08/04 04:35:55;;;;;;;6.07;3.60;;;14.80;99.90;;;;;;4178648;28;20207;-79
2021/08/04 04:37:56;;;;;;;5.20;3.40;;;14.80;99.90;;;;;;4174874;28;20232;-80
2021/08/04 04:39:58;;;;;;;5.97;3.70;;;14.80;99.90;;;;;;4178942;28;20210;-79
2021/08/04 04:42:01;;;;;;;7.60;3.40;;;14.80;99.90;;;;;;4177147;28;20226;-79
2021/08/04 04:44:03;;;;;;;5.37;3.63;;;14.80;99.90;;;;;;4163138;28;20239;-79
2021/08/04 04:46:05;;;;;;;7.87;3.97;;;14.80;99.90;;;;;;4179467;28;20225;-79
2021/08/04 04:48:07;;;;;;;6.03;3.93;;;14.80;99.90;;;;;;4178960;28;20225;-79
2021/08/04 04:50:10;;;;;;;7.40;3.67;;;14.80;99.90;;;;;;4176434;28;20208;-79
2021/08/04 04:52:12;;;;;;;7.00;4.23;;;14.80;99.90;;;;;;4170821;28;20242;-79
2021/08/04 04:54:14;;;;;;;6.80;3.37;;;14.80;99.90;;;;;;4177844;28;20215;-79
2021/08/04 04:56:15;;;;;;;8.23;3.80;;;14.90;99.90;;;;;;4176889;28;20206;-79
2021/08/04 04:58:18;;;;;;;6.13;4.10;;;14.80;99.90;;;;;;4177615;28;20238;-82
2021/08/04 05:00:20;;;;;;;6.87;4.03;;;14.80;99.90;;;;;;4183375;28;20207;-79
2021/08/04 05:02:22;;;;;;;6.07;3.97;;;14.90;99.90;;;;;;4174599;28;20221;-78
2021/08/04 05:04:23;;;;;;;5.63;3.70;;;14.90;99.90;;;;;;4177307;28;20211;-78
2021/08/04 05:06:25;;;;;;;6.20;4.33;;;14.90;99.90;;;;;;4175769;28;20620;-78
2021/08/04 05:08:27;;;;;;;6.47;4.00;;;14.90;99.90;;;;;;4175060;28;20212;-78
2021/08/04 05:10:28;;;;;;;5.77;3.67;;;15.00;99.90;;;;;;4173254;28;20210;-79
2021/08/04 05:12:30;;;;;;;6.43;3.80;;;15.00;99.90;;;;;;4173626;28;20211;-78
2021/08/04 05:14:33;;;;;;;5.57;3.90;;;15.00;99.90;;;;;;4174248;28;20221;-79
2021/08/04 05:16:35;;;;;;;10.70;4.23;;;15.00;99.90;;;;;;4176610;28;20664;-77
2021/08/04 05:18:37;;;;;;;8.50;4.00;;;15.00;99.90;;;;;;4179329;28;20725;-79
2021/08/04 05:20:39;;;;;;;8.67;4.10;;;15.10;99.90;;;;;;4180727;28;20282;-79
2021/08/04 05:22:41;;;;;;;5.10;3.73;;;15.10;99.90;;;;;;4172772;28;20213;-79
2021/08/04 05:24:42;;;;;;;6.33;4.07;;;15.10;99.90;;;;;;4175863;28;20216;-79
2021/08/04 05:26:44;;;;;;;6.50;4.07;;;15.20;99.90;;;;;;4172310;28;20278;-78
2021/08/04 05:28:46;;;;;;;6.03;4.17;;;15.20;99.90;;;;;;4178004;28;20633;-77
2021/08/04 05:30:49;;;;;;;6.43;4.07;;;15.30;99.90;;;;;;4174866;28;20381;-78
2021/08/04 05:32:50;;;;;;;6.50;4.37;;;15.20;99.90;;;;;;4172367;28;20273;-78
2021/08/04 05:34:51;;;;;;;5.67;4.10;;;15.30;99.90;;;;;;4175647;28;20676;-78
2021/08/04 05:36:54;;;;;;;7.30;4.07;;;15.30;99.90;;;;;;4175975;28;20220;-78
2021/08/04 05:38:57;;;;;;;6.47;4.27;;;15.30;99.90;;;;;;4176708;28;20243;-79
2021/08/04 05:41:02;;;;;;;6.67;4.70;;;15.30;99.90;;;;;;4173226;28;20653;-78
2021/08/04 05:43:07;;;;;;;7.87;4.80;;;15.40;99.90;;;;;;4174119;28;20724;-78
2021/08/04 05:45:09;;;;;;;7.03;4.30;;;15.40;99.90;;;;;;4172351;28;20266;-78
2021/08/04 05:47:13;;;;;;;6.57;4.37;;;15.40;99.90;;;;;;4176424;28;20214;-78
2021/08/04 05:49:15;;;;;;;7.33;4.73;;;15.50;99.90;;;;;;4174870;28;20225;-78
2021/08/04 05:51:16;;;;;;;6.97;4.83;;;15.50;99.90;;;;;;4173531;28;20237;-78
2021/08/04 05:53:18;;;;;;;6.60;4.63;;;15.50;99.90;;;;;;4179793;28;20618;-77
2021/08/04 05:55:20;;;;;;;7.10;4.90;;;15.50;99.90;;;;;;4174473;28;20217;-79
2021/08/04 05:57:21;;;;;;;8.30;4.87;;;15.60;99.90;;;;;;4172156;28;20236;-77
2021/08/04 05:59:23;;;;;;;9.53;5.20;;;15.50;99.90;;;;;;4176248;28;20671;-77
2021/08/04 06:01:25;;;;;;;6.43;4.53;;;15.60;99.90;;;;;;4174374;28;21081;-77
2021/08/04 06:03:28;;;;;;;7.80;4.77;;;15.60;99.90;;;;;;4175495;28;20217;-77
2021/08/04 06:05:29;;;;;;;6.77;4.30;;;15.70;99.90;;;;;;4171042;28;20300;-78
2021/08/04 06:07:31;;;;;;;6.13;4.67;;;15.70;99.90;;;;;;4175232;28;20217;-78
2021/08/04 06:09:33;;;;;;;8.70;4.93;;;15.70;99.90;;;;;;4176473;28;20283;-81
2021/08/04 06:11:37;;;;;;;6.80;4.80;;;15.70;99.90;;;;;;4163703;28;20237;-77
2021/08/04 06:13:38;;;;;;;8.37;4.60;;;15.90;99.90;;;;;;4175850;28;20210;-78
2021/08/04 06:15:40;;;;;;;7.60;4.67;;;15.80;99.90;;;;;;4172474;28;20589;-78
2021/08/04 06:17:42;;;;;;;7.30;4.50;;;15.80;99.90;;;;;;4173878;28;20593;-78
2021/08/04 06:19:45;;;;;;;7.87;4.97;;;15.80;99.90;;;;;;4173492;28;20602;-78
2021/08/04 06:21:46;;;;;;;9.90;5.23;;;15.90;99.90;;;;;;4173587;28;20295;-78
2021/08/04 06:23:48;;;;;;;8.57;5.07;;;15.90;99.90;;;;;;4177987;28;20240;-78
2021/08/04 06:25:50;;;;;;;8.90;4.80;;;15.90;99.90;;;;;;4177554;28;20607;-78
2021/08/04 06:27:52;;;;;;;7.43;5.00;;;16.00;99.90;;;;;;4177660;28;20213;-78
2021/08/04 06:29:54;;;;;;;10.17;5.27;;;16.00;99.90;;;;;;4173658;28;20221;-78
2021/08/04 06:31:55;;;;;;;7.57;5.13;;;16.00;99.90;;;;;;4172139;28;20241;-78
2021/08/04 06:33:57;;;;;;;7.97;5.00;;;16.10;99.90;;;;;;4173061;28;20635;-78
2021/08/04 06:36:00;;;;;;;8.07;5.00;;;16.10;99.90;;;;;;4177576;28;20604;-78
2021/08/04 06:38:02;;;;;;;11.73;4.93;;;16.20;99.90;;;;;;4176928;28;20758;-78
2021/08/04 06:40:05;;;;;;;8.87;4.73;;;16.20;99.90;;;;;;4169152;28;20264;-77
2021/08/04 06:42:07;;;;;;;8.23;4.77;;;16.20;99.90;;;;;;4173907;28;20654;-78
2021/08/04 06:44:08;;;;;;;6.37;4.87;;;16.20;99.90;;;;;;4173441;28;20214;-78
2021/08/04 06:46:11;;;;;;;9.10;4.97;;;16.20;99.90;;;;;;4171343;28;20208;-78
2021/08/04 06:48:13;;;;;;;6.67;4.60;;;16.30;99.90;;;;;;4163689;28;20315;-78
2021/08/04 06:50:14;;;;;;;7.27;5.07;;;16.30;99.90;;;;;;4168845;28;20260;-78
2021/08/04 06:52:18;;;;;;;7.80;5.13;;;16.30;99.90;;;;;;4172612;28;20235;-78
2021/08/04 06:54:20;;;;;;;7.03;5.03;;;16.30;99.90;;;;;;4168342;28;20209;-78
2021/08/04 06:56:21;;;;;;;6.73;4.47;;;16.40;99.90;;;;;;4172123;28;20293;-78
2021/08/04 06:58:23;;;;;;;6.90;4.63;;;16.40;99.90;;;;;;4177640;28;20778;-78
2021/08/04 07:00:25;;;;;;;6.97;4.93;;;16.50;99.90;;;;;;4171774;28;20613;-78
2021/08/04 07:02:27;;;;;;;9.30;5.10;;;16.50;99.90;;;;;;4181014;28;20217;-83
2021/08/04 07:04:29;;;;;;;6.43;5.10;;;16.60;99.90;;;;;;4167541;28;20222;-76
2021/08/04 07:06:30;;;;;;;7.73;5.43;;;16.60;99.90;;;;;;4168714;28;20217;-78
2021/08/04 07:08:33;;;;;;;6.93;5.20;;;16.60;99.90;;;;;;4172334;28;20268;-78
2021/08/04 07:10:35;;;;;;;8.03;5.10;;;16.70;99.90;;;;;;4169595;28;20211;-78
2021/08/04 07:12:37;;;;;;;8.77;5.13;;;16.70;99.90;;;;;;4163582;28;20258;-77
2021/08/04 07:14:39;;;;;;;10.13;5.73;;;16.70;99.90;;;;;;4171530;28;20214;-77
2021/08/04 07:16:40;;;;;;;7.47;5.60;;;16.70;99.90;;;;;;4169002;28;20235;-76
2021/08/04 07:18:42;;;;;;;7.77;5.13;;;16.70;99.90;;;;;;4169947;28;20226;-77
2021/08/04 07:20:44;;;;;;;7.13;5.03;;;16.70;99.90;;;;;;4176084;28;20265;-76
2021/08/04 07:22:47;;;;;;;7.27;5.13;;;16.70;99.90;;;;;;4173703;28;20210;-76
2021/08/04 07:24:50;;;;;;;8.53;5.43;;;16.70;99.90;;;;;;4177023;28;20311;-76
2021/08/04 07:26:52;;;;;;;6.77;4.93;;;16.70;99.90;;;;;;4174736;28;20210;-77
2021/08/04 07:28:53;;;;;;;7.03;5.20;;;16.70;99.90;;;;;;4176503;28;20225;-76
2021/08/04 07:30:55;;;;;;;6.33;4.70;;;16.80;99.90;;;;;;4171066;28;20226;-77
2021/08/04 07:32:57;;;;;;;8.13;5.10;;;16.80;99.90;;;;;;4165763;28;20213;-77
2021/08/04 07:35:00;;;;;;;6.97;5.03;;;16.70;99.90;;;;;;4170841;28;20215;-77
2021/08/04 07:37:02;;;;;;;6.57;4.87;;;16.80;99.90;;;;;;4177155;28;20209;-77
2021/08/04 07:39:04;;;;;;;7.07;5.20;;;16.80;99.90;;;;;;4176176;28;20244;-77
2021/08/04 07:41:08;;;;;;;8.97;4.73;;;16.80;99.90;;;;;;4171192;28;20284;-77
2021/08/04 07:43:11;;;;;;;8.60;5.60;;;16.80;99.90;;;;;;4174098;28;20210;-78
2021/08/04 07:45:13;;;;;;;6.90;4.60;;;16.80;99.90;;;;;;4172492;28;20645;-77
2021/08/04 07:47:15;;;;;;;9.17;4.17;;;16.70;99.90;;;;;;4168296;28;20646;-77
2021/08/04 07:49:16;;;;;;;5.53;3.97;;;16.80;99.90;;;;;;4167640;28;20210;-77
2021/08/04 07:51:18;;;;;;;6.97;4.10;;;16.70;99.90;;;;;;4167963;28;20402;-77
2021/08/04 07:53:20;;;;;;;4.87;3.47;;;16.70;99.90;;;;;;4167239;28;20634;-77
2021/08/04 07:55:22;;;;;;;3.60;3.07;;;16.70;99.90;;;;;;4168481;28;20218;-77
2021/08/04 07:57:25;;;;;;;5.00;2.90;;;16.70;99.90;;;;;;4168377;28;20218;-77
2021/08/04 07:59:27;;;;;;;5.20;3.03;;;16.70;99.90;;;;;;4167737;28;20242;-77
2021/08/04 08:01:28;;;;;;;3.70;3.00;;;16.70;99.90;;;;;;4168193;28;20235;-76
2021/08/04 08:03:30;;;;;;;4.57;2.73;;;16.70;99.90;;;;;;4170827;28;20583;-76
2021/08/04 08:05:32;;;;;;;3.57;2.83;;;16.80;99.90;;;;;;4170004;28;20273;-76
2021/08/04 08:07:34;;;;;;;6.50;3.20;;;16.80;99.90;;;;;;4167327;28;20267;-76
2021/08/04 08:09:35;;;;;;;3.67;2.90;;;16.80;99.90;;;;;;4168377;28;20669;-76
2021/08/04 08:11:37;;;;;;;2.83;2.47;;;16.90;99.90;;;;;;4166845;28;20295;-77
2021/08/04 08:13:40;;;;;;;2.73;2.33;;;16.90;99.90;;;;;;4168618;28;20219;-76
2021/08/04 08:15:42;;;;;;;3.27;2.27;;;17.00;99.90;;;;;;4169772;28;20627;-76
2021/08/04 08:17:44;;;;;;;2.30;2.00;;;16.90;99.90;;;;;;4168155;28;20264;-76
2021/08/04 08:19:46;;;;;;;4.87;3.17;;;17.00;99.90;;;;;;4170418;28;20226;-76
2021/08/04 08:21:48;;;;;;;4.47;3.40;;;17.00;99.90;;;;;;4169835;28;20727;-76
2021/08/04 08:23:50;;;;;;;4.33;3.80;;;17.10;99.90;;;;;;4174201;28;20271;-76
2021/08/04 08:25:52;;;;;;;5.70;3.90;;;17.10;99.90;;;;;;4172836;28;20206;-76
2021/08/04 08:27:53;;;;;;;6.83;4.40;;;17.20;99.90;;;;;;4174745;28;20206;-76
2021/08/04 08:29:57;;;;;;;5.70;4.20;;;17.20;99.90;;;;;;4172860;28;20666;-77
2021/08/04 08:31:58;;;;;;;5.87;4.10;;;17.30;99.90;;;;;;4173903;28;20257;-76
2021/08/04 08:34:00;;;;;;;5.80;4.57;;;17.30;99.90;;;;;;4176392;28;20268;-77
2021/08/04 08:36:02;;;;;;;6.60;4.63;;;17.30;99.90;;;;;;4166569;28;20277;-76
2021/08/04 08:38:04;;;;;;;5.60;4.83;;;17.40;99.90;;;;;;4165848;28;20291;-76
2021/08/04 08:40:07;;;;;;;5.70;5.10;;;17.40;99.90;;;;;;4174684;28;20233;-76
2021/08/04 08:42:09;;;;;;;5.27;4.63;;;17.40;99.90;;;;;;4171460;28;20238;-77
2021/08/04 08:44:11;;;;;;;5.00;4.50;;;17.50;99.90;;;;;;4176076;28;20214;-77
2021/08/04 08:46:15;;;;;;;4.67;4.17;;;17.50;99.90;;;;;;4172139;28;20233;-77
2021/08/04 08:48:17;;;;;;;3.63;3.33;;;17.50;99.90;;;;;;4173929;28;20283;-77
2021/08/04 08:50:25;;;;;;;3.97;3.57;;;17.60;99.90;;;;;;4174302;28;20207;-77
2021/08/04 08:52:27;;;;;;;3.90;3.50;;;17.60;99.90;;;;;;4188770;23;20234;-78
2021/08/04 08:54:29;;;;;;;3.20;2.90;;;17.70;99.90;;;;;;4176242;28;20210;-77
2021/08/04 08:56:30;;;;;;;4.00;3.10;;;17.70;99.90;;;;;;4175916;28;20210;-78
2021/08/04 08:58:32;;;;;;;4.13;3.00;;;17.80;99.90;;;;;;4177797;28;20225;-77
2021/08/04 09:00:34;;;;;;;3.20;2.80;;;17.80;99.90;;;;;;4177375;28;20579;-79
2021/08/04 09:02:41;;;;;;;2.93;2.63;;;17.90;99.90;;;;;;4172997;28;20235;-78
2021/08/04 09:04:57;;;;;;;3.33;2.60;;;18.00;99.90;;;;;;4166579;28;20219;-78
2021/08/04 09:07:00;;;;;;;3.77;2.40;;;18.20;99.90;;;;;;4162981;28;20265;-77
2021/08/04 09:09:14;;;;;;;3.27;2.50;;;18.30;99.90;;;;;;4159405;28;20878;-77
2021/08/04 09:11:19;;;;;;;3.40;2.50;;;18.50;99.90;;;;;;4164055;28;20303;-78
2021/08/04 09:13:31;;;;;;;3.00;2.50;;;18.60;99.90;;;;;;4162800;28;20296;-78
2021/08/04 09:15:36;;;;;;;3.00;2.70;;;18.80;99.90;;;;;;4166067;28;20240;-77
2021/08/04 09:17:40;;;;;;;3.00;2.70;;;18.90;99.90;;;;;;4167353;28;20215;-77
2021/08/04 09:19:43;;;;;;;3.03;2.67;;;19.00;99.90;;;;;;4164695;28;20283;-78
2021/08/04 09:21:45;;;;;;;2.77;2.57;;;19.20;99.90;;;;;;4173589;28;20237;-77
2021/08/04 09:23:48;;;;;;;3.13;2.70;;;19.30;99.90;;;;;;4171268;28;20260;-77
2021/08/04 09:26:06;;;;;;;3.00;2.70;;;19.30;99.90;;;;;;4171532;28;20230;-78
2021/08/04 09:28:09;;;;;;;2.60;2.20;;;19.40;99.90;;;;;;4171164;28;20586;-78
2021/08/04 09:30:13;;;;;;;2.60;2.40;;;19.50;99.90;;;;;;4172306;28;20322;-77
2021/08/04 09:32:23;;;;;;;3.63;2.00;;;19.50;99.90;;;;;;4167337;28;20610;-77
2021/08/04 09:34:36;;;;;;;2.43;2.00;;;19.60;99.90;;;;;;4165613;28;20214;-77
2021/08/04 09:36:37;;;;;;;3.60;2.20;;;19.70;99.90;;;;;;4168095;28;20213;-77
2021/08/04 09:39:00;;;;;;;3.33;2.23;;;19.80;99.90;;;;;;4175897;28;20268;-78
2021/08/04 09:41:15;;;;;;;2.53;2.30;;;19.80;99.90;;;;;;4172848;28;20642;-77
2021/08/04 09:43:24;;;;;;;3.77;2.20;;;20.00;99.90;;;;;;4173142;28;20208;-77
2021/08/04 09:45:39;;;;;;;3.23;2.50;;;20.10;99.90;;;;;;4176724;28;20295;-77
2021/08/04 09:47:56;;;;;;;2.47;2.23;;;20.30;99.90;;;;;;4174649;28;20592;-77
2021/08/04 09:50:00;;;;;;;2.10;1.90;;;20.40;99.90;;;;;;4177976;28;20244;-77
2021/08/04 09:52:07;;;;;;;3.40;2.50;;;20.50;99.90;;;;;;4177969;28;20234;-76
2021/08/04 09:54:09;;;;;;;2.73;2.27;;;20.50;99.90;;;;;;4172933;28;20210;-76
2021/08/04 09:56:16;;;;;;;2.57;2.37;;;20.60;99.90;;;;;;4175469;28;20222;-77
2021/08/04 09:58:24;;;;;;;2.50;2.23;;;20.60;99.90;;;;;;4176821;28;20272;-78
2021/08/04 10:00:26;;;;;;;2.23;2.00;;;20.60;99.90;;;;;;4177272;28;20230;-76
2021/08/04 10:02:29;;;;;;;2.43;2.10;;;20.60;99.90;;;;;;4171145;28;20668;-77
2021/08/04 10:04:31;;;;;;;2.40;2.20;;;20.60;99.90;;;;;;4161173;28;20215;-75
2021/08/04 10:06:35;;;;;;;1.90;1.67;;;20.60;99.90;;;;;;4174304;28;20249;-77
2021/08/04 10:08:39;;;;;;;2.43;1.90;;;20.60;99.90;;;;;;4178125;28;20260;-77
2021/08/04 10:10:42;;;;;;;1.83;1.60;;;20.70;99.90;;;;;;4178194;28;20210;-76
2021/08/04 10:12:44;;;;;;;1.63;1.40;;;20.70;99.90;;;;;;4177383;28;20238;-77
2021/08/04 10:14:46;;;;;;;1.80;1.70;;;20.70;99.90;;;;;;4178148;28;20241;-76
2021/08/04 10:16:50;;;;;;;1.90;1.73;;;20.80;99.90;;;;;;4171994;28;20210;-76
2021/08/04 10:18:55;;;;;;;2.20;2.00;;;21.00;99.90;;;;;;4177967;28;20623;-76
2021/08/04 10:20:59;;;;;;;2.50;1.60;;;21.20;99.90;;;;;;4176376;28;20632;-76
2021/08/04 10:23:03;;;;;;;1.70;1.40;;;21.40;99.90;;;;;;4172988;28;20270;-76
2021/08/04 10:25:06;;;;;;;1.80;1.30;;;21.60;98.00;;;;;;4175314;28;20670;-76
2021/08/04 10:27:07;;;;;;;2.50;1.53;;;21.80;97.50;;;;;;4177002;28;20385;-76
2021/08/04 10:29:10;;;;;;;2.50;1.67;;;22.00;96.10;;;;;;4173330;28;20238;-76
2021/08/04 10:31:14;;;;;;;1.70;1.60;;;22.10;96.40;;;;;;4172011;28;20240;-76
2021/08/04 10:33:17;;;;;;;2.40;1.53;;;22.30;97.30;;;;;;4174196;28;20300;-76
2021/08/04 10:35:19;;;;;;;1.30;1.20;;;22.50;95.60;;;;;;4174111;28;20217;-76
2021/08/04 10:37:21;;;;;;;1.30;1.20;;;22.70;94.60;;;;;;4177202;28;20237;-76
2021/08/04 10:39:26;;;;;;;1.30;1.20;;;22.80;94.50;;;;;;4170170;28;20313;-76